Tolhuin, Argentina

2:46 PM ART on July 29, 2014 (GMT -0300)
Ushuaia International Malvine Island (SAWH) Elev 69 ft | 54.84 °S, 68.31 °W | Change Station

Current weather conditions updated 46 minutes ago

Scattered Clouds
Scattered Clouds
39 °F
Feels Like 33 °F
N
9
Wind Variable Wind from NNW

Today is forecast to be nearly the same temperature as yesterday.

Today
High -- | Low -- °F
--% Chance of Precip.
Yesterday
High -- | Low -- °F
Precip. -- in
9:22 AM 5:48 PM
Waxing Crescent, 7% visible
Pressure 29.53 in
Visibility 6.2 miles
Clouds Scattered Clouds 3500 ft
Windchill 33 °F
Dew Point 34 °F
Humidity 81%
Rainfall 0.00 in
Snow Depth Not available.
UV 1 out of 12
Pollen Not available.
Air Quality Not available.
Flu Activity Not available.
METAR SAWH 291700Z 34008KT 9999 SCT035 04/01 Q1000

More Conditions Fewer Conditions

Pressure 29.53 in
Visibility 6.2 miles
Clouds Scattered Clouds 3500 ft
Windchill 33 °F
Dew Point 34 °F
Humidity 81%
Rainfall 0.00 in
Snow Depth Not available.
UV 1 out of 12
Pollen Not available.
Air Quality Not available.
Flu Activity Not available.
METAR SAWH 291700Z 34008KT 9999 SCT035 04/01 Q1000

More Conditions Fewer Conditions

10-Day Weather Forecast

Almanac

Astronomy

Jul. 29, 2014 Rise Set
Actual Time 9:22 AM ART 5:48 PM ART
Civil Twilight 8:42 AM ART 6:29 PM ART
Nautical Twilight 7:58 AM ART 7:13 PM ART
Astronomical Twilight 7:15 AM ART 7:55 PM ART
Moon 9:57 AM ART 9:13 PM ART
Length of Visible Light 9h 47m
Length of Day
8h 26m
Tomorrow will be 3m 22s longer.
Waxing Crescent, 7% of the Moon is Illuminated
Today
Waxing Crescent
Aug 3
First Quarter
Aug 10
Full
Aug 17
Last Quarter
Aug 25
New

Today's Extremes

Country Highs Country Lows

Community

WunderPhotos

Upload Photos

1,738,803 photos uploaded!

WunderBlogs® & News

Nearby

Snow Depth

Not available.

Earthquake Activity

City Distance Mag. Time & Date
No recent earthquake activity has been reported nearby.
Minimum magnitude displayed is 2.5.

Coastal Water Temperatures

Place Temperature
No Stations Reporting

Nearby Weather Stations

There are no personal weather stations in this area.